sensor_id;sensor_type;location;lat;lon;timestamp;P1;durP1;ratioP1;P2;durP2;ratioP2
37063;SDS011;23211;53.912;9.138;2022-11-04T00:02:42;11.38;;;2.92;;
37063;SDS011;23211;53.912;9.138;2022-11-04T00:05:28;4.95;;;2.13;;
37063;SDS011;23211;53.912;9.138;2022-11-04T00:08:14;7.10;;;2.30;;
37063;SDS011;23211;53.912;9.138;2022-11-04T00:11:08;6.50;;;2.55;;
37063;SDS011;23211;53.912;9.138;2022-11-04T00:14:14;8.43;;;2.72;;
37063;SDS011;23211;53.912;9.138;2022-11-04T00:17:00;7.57;;;2.85;;
37063;SDS011;23211;53.912;9.138;2022-11-04T00:20:04;8.40;;;2.92;;
37063;SDS011;23211;53.912;9.138;2022-11-04T00:23:09;6.07;;;2.28;;
37063;SDS011;23211;53.912;9.138;2022-11-04T00:26:13;5.85;;;2.35;;
37063;SDS011;23211;53.912;9.138;2022-11-04T00:29:17;8.27;;;2.67;;
37063;SDS011;23211;53.912;9.138;2022-11-04T00:32:03;8.38;;;2.67;;
37063;SDS011;23211;53.912;9.138;2022-11-04T00:35:07;5.43;;;2.65;;
37063;SDS011;23211;53.912;9.138;2022-11-04T00:37:54;6.88;;;2.63;;
37063;SDS011;23211;53.912;9.138;2022-11-04T00:40:40;7.38;;;2.60;;
37063;SDS011;23211;53.912;9.138;2022-11-04T00:43:26;6.25;;;2.50;;
37063;SDS011;23211;53.912;9.138;2022-11-04T00:46:12;4.80;;;2.72;;
37063;SDS011;23211;53.912;9.138;2022-11-04T00:48:57;11.13;;;2.60;;
37063;SDS011;23211;53.912;9.138;2022-11-04T00:51:44;5.97;;;2.65;;
37063;SDS011;23211;53.912;9.138;2022-11-04T00:54:29;4.55;;;2.20;;
37063;SDS011;23211;53.912;9.138;2022-11-04T00:57:15;4.65;;;2.42;;
37063;SDS011;23211;53.912;9.138;2022-11-04T01:00:01;9.15;;;2.50;;
37063;SDS011;23211;53.912;9.138;2022-11-04T01:02:46;8.95;;;2.72;;
37063;SDS011;23211;53.912;9.138;2022-11-04T01:05:32;7.38;;;2.72;;
37063;SDS011;23211;53.912;9.138;2022-11-04T01:08:18;12.05;;;4.00;;
37063;SDS011;23211;53.912;9.138;2022-11-04T01:11:04;7.78;;;2.88;;
37063;SDS011;23211;53.912;9.138;2022-11-04T01:13:51;5.88;;;2.80;;
37063;SDS011;23211;53.912;9.138;2022-11-04T01:16:37;4.20;;;3.20;;
37063;SDS011;23211;53.912;9.138;2022-11-04T01:19:23;6.05;;;2.75;;
37063;SDS011;23211;53.912;9.138;2022-11-04T01:22:09;6.70;;;2.45;;
37063;SDS011;23211;53.912;9.138;2022-11-04T01:24:54;4.15;;;2.75;;
37063;SDS011;23211;53.912;9.138;2022-11-04T01:27:40;9.77;;;3.33;;
37063;SDS011;23211;53.912;9.138;2022-11-04T01:30:26;6.22;;;3.00;;
37063;SDS011;23211;53.912;9.138;2022-11-04T01:33:12;8.43;;;2.95;;
37063;SDS011;23211;53.912;9.138;2022-11-04T01:35:58;6.00;;;2.80;;
37063;SDS011;23211;53.912;9.138;2022-11-04T01:38:45;8.52;;;3.20;;
37063;SDS011;23211;53.912;9.138;2022-11-04T01:41:32;8.35;;;3.40;;
37063;SDS011;23211;53.912;9.138;2022-11-04T01:50:28;5.57;;;3.33;;
37063;SDS011;23211;53.912;9.138;2022-11-04T01:53:16;7.88;;;3.55;;
37063;SDS011;23211;53.912;9.138;2022-11-04T01:56:08;11.25;;;3.40;;
37063;SDS011;23211;53.912;9.138;2022-11-04T01:58:56;6.38;;;3.30;;
37063;SDS011;23211;53.912;9.138;2022-11-04T02:01:51;7.65;;;3.45;;
37063;SDS011;23211;53.912;9.138;2022-11-04T02:04:38;8.18;;;3.55;;
37063;SDS011;23211;53.912;9.138;2022-11-04T02:07:25;8.40;;;3.40;;
37063;SDS011;23211;53.912;9.138;2022-11-04T02:10:10;5.35;;;3.78;;
37063;SDS011;23211;53.912;9.138;2022-11-04T02:12:57;10.73;;;3.42;;
37063;SDS011;23211;53.912;9.138;2022-11-04T02:19:05;9.30;;;4.47;;
37063;SDS011;23211;53.912;9.138;2022-11-04T02:37:29;5.80;;;3.97;;
37063;SDS011;23211;53.912;9.138;2022-11-04T02:40:27;7.32;;;4.13;;
37063;SDS011;23211;53.912;9.138;2022-11-04T02:43:42;6.43;;;3.80;;
37063;SDS011;23211;53.912;9.138;2022-11-04T02:46:31;10.00;;;4.30;;
37063;SDS011;23211;53.912;9.138;2022-11-04T02:49:26;5.47;;;4.07;;
37063;SDS011;23211;53.912;9.138;2022-11-04T02:52:52;5.85;;;4.35;;
37063;SDS011;23211;53.912;9.138;2022-11-04T02:55:44;10.40;;;4.88;;
37063;SDS011;23211;53.912;9.138;2022-11-04T02:58:40;8.50;;;4.25;;
37063;SDS011;23211;53.912;9.138;2022-11-04T03:01:33;9.07;;;4.53;;
37063;SDS011;23211;53.912;9.138;2022-11-04T03:04:30;11.10;;;4.97;;
37063;SDS011;23211;53.912;9.138;2022-11-04T03:07:22;8.10;;;4.63;;
37063;SDS011;23211;53.912;9.138;2022-11-04T03:10:15;6.97;;;4.32;;
37063;SDS011;23211;53.912;9.138;2022-11-04T03:13:11;9.25;;;4.88;;
37063;SDS011;23211;53.912;9.138;2022-11-04T03:16:00;9.15;;;4.90;;
37063;SDS011;23211;53.912;9.138;2022-11-04T03:22:20;9.35;;;4.85;;
37063;SDS011;23211;53.912;9.138;2022-11-04T03:25:09;11.80;;;5.35;;
37063;SDS011;23211;53.912;9.138;2022-11-04T03:31:22;8.07;;;5.43;;
37063;SDS011;23211;53.912;9.138;2022-11-04T03:34:12;14.27;;;5.13;;
37063;SDS011;23211;53.912;9.138;2022-11-04T03:36:58;7.13;;;5.30;;
37063;SDS011;23211;53.912;9.138;2022-11-04T03:39:44;6.85;;;5.18;;
37063;SDS011;23211;53.912;9.138;2022-11-04T03:42:30;7.53;;;5.57;;
37063;SDS011;23211;53.912;9.138;2022-11-04T03:45:19;6.90;;;4.78;;
37063;SDS011;23211;53.912;9.138;2022-11-04T03:48:04;6.80;;;5.30;;
37063;SDS011;23211;53.912;9.138;2022-11-04T03:50:50;9.73;;;5.35;;
37063;SDS011;23211;53.912;9.138;2022-11-04T03:53:36;7.95;;;5.68;;
37063;SDS011;23211;53.912;9.138;2022-11-04T04:02:31;10.15;;;5.40;;
37063;SDS011;23211;53.912;9.138;2022-11-04T04:05:28;9.23;;;5.30;;
37063;SDS011;23211;53.912;9.138;2022-11-04T04:08:29;8.52;;;5.35;;
37063;SDS011;23211;53.912;9.138;2022-11-04T04:11:31;9.82;;;5.25;;
37063;SDS011;23211;53.912;9.138;2022-11-04T04:14:42;7.07;;;4.93;;
37063;SDS011;23211;53.912;9.138;2022-11-04T04:17:37;5.30;;;4.05;;
37063;SDS011;23211;53.912;9.138;2022-11-04T04:20:27;9.25;;;4.22;;
37063;SDS011;23211;53.912;9.138;2022-11-04T04:23:17;7.47;;;3.60;;
37063;SDS011;23211;53.912;9.138;2022-11-04T04:26:26;16.73;;;3.65;;
37063;SDS011;23211;53.912;9.138;2022-11-04T04:29:32;5.10;;;2.60;;
37063;SDS011;23211;53.912;9.138;2022-11-04T04:32:19;2.92;;;2.33;;
37063;SDS011;23211;53.912;9.138;2022-11-04T04:35:08;2.20;;;2.00;;
37063;SDS011;23211;53.912;9.138;2022-11-04T04:38:22;2.72;;;1.90;;
37063;SDS011;23211;53.912;9.138;2022-11-04T04:41:28;5.65;;;1.90;;
37063;SDS011;23211;53.912;9.138;2022-11-04T04:44:34;3.17;;;1.70;;
37063;SDS011;23211;53.912;9.138;2022-11-04T04:47:43;20.30;;;2.50;;
37063;SDS011;23211;53.912;9.138;2022-11-04T04:50:36;2.30;;;2.10;;
37063;SDS011;23211;53.912;9.138;2022-11-04T04:53:26;2.13;;;1.88;;
37063;SDS011;23211;53.912;9.138;2022-11-04T04:56:12;2.00;;;1.75;;
37063;SDS011;23211;53.912;9.138;2022-11-04T04:58:58;1.95;;;1.67;;
37063;SDS011;23211;53.912;9.138;2022-11-04T05:01:43;1.38;;;1.27;;
37063;SDS011;23211;53.912;9.138;2022-11-04T05:04:29;1.50;;;1.10;;
37063;SDS011;23211;53.912;9.138;2022-11-04T05:07:15;2.45;;;1.00;;
37063;SDS011;23211;53.912;9.138;2022-11-04T05:10:01;0.90;;;0.80;;
37063;SDS011;23211;53.912;9.138;2022-11-04T05:12:47;2.35;;;0.90;;
37063;SDS011;23211;53.912;9.138;2022-11-04T05:15:51;3.10;;;0.77;;
37063;SDS011;23211;53.912;9.138;2022-11-04T05:18:37;1.15;;;0.80;;
37063;SDS011;23211;53.912;9.138;2022-11-04T05:21:23;1.70;;;0.70;;
37063;SDS011;23211;53.912;9.138;2022-11-04T05:24:09;0.68;;;0.52;;
37063;SDS011;23211;53.912;9.138;2022-11-04T05:26:55;3.08;;;0.60;;
37063;SDS011;23211;53.912;9.138;2022-11-04T05:29:41;0.70;;;0.60;;
37063;SDS011;23211;53.912;9.138;2022-11-04T05:32:30;2.28;;;0.80;;
37063;SDS011;23211;53.912;9.138;2022-11-04T05:35:15;0.60;;;0.50;;
37063;SDS011;23211;53.912;9.138;2022-11-04T05:38:01;1.73;;;0.60;;
37063;SDS011;23211;53.912;9.138;2022-11-04T05:40:47;1.08;;;0.60;;
37063;SDS011;23211;53.912;9.138;2022-11-04T05:43:33;1.35;;;0.70;;
37063;SDS011;23211;53.912;9.138;2022-11-04T05:46:19;4.40;;;0.70;;
37063;SDS011;23211;53.912;9.138;2022-11-04T05:49:05;1.88;;;0.68;;
37063;SDS011;23211;53.912;9.138;2022-11-04T05:51:51;3.58;;;0.70;;
37063;SDS011;23211;53.912;9.138;2022-11-04T05:54:36;4.43;;;0.93;;
37063;SDS011;23211;53.912;9.138;2022-11-04T05:57:23;3.42;;;0.93;;
37063;SDS011;23211;53.912;9.138;2022-11-04T06:00:09;1.23;;;0.63;;
37063;SDS011;23211;53.912;9.138;2022-11-04T06:02:57;2.00;;;0.60;;
37063;SDS011;23211;53.912;9.138;2022-11-04T06:05:43;3.53;;;0.68;;
37063;SDS011;23211;53.912;9.138;2022-11-04T06:08:29;2.17;;;0.60;;
37063;SDS011;23211;53.912;9.138;2022-11-04T06:11:16;3.25;;;0.60;;
37063;SDS011;23211;53.912;9.138;2022-11-04T06:14:02;2.95;;;0.77;;
37063;SDS011;23211;53.912;9.138;2022-11-04T06:16:48;2.30;;;0.77;;
37063;SDS011;23211;53.912;9.138;2022-11-04T06:19:35;3.38;;;0.93;;
37063;SDS011;23211;53.912;9.138;2022-11-04T06:22:21;1.73;;;0.63;;
37063;SDS011;23211;53.912;9.138;2022-11-04T06:25:07;2.30;;;0.82;;
37063;SDS011;23211;53.912;9.138;2022-11-04T06:27:53;4.47;;;0.90;;
37063;SDS011;23211;53.912;9.138;2022-11-04T06:30:38;2.78;;;0.77;;
37063;SDS011;23211;53.912;9.138;2022-11-04T06:33:24;3.42;;;0.70;;
37063;SDS011;23211;53.912;9.138;2022-11-04T06:36:13;1.70;;;0.52;;
37063;SDS011;23211;53.912;9.138;2022-11-04T06:39:00;3.88;;;0.80;;
37063;SDS011;23211;53.912;9.138;2022-11-04T06:41:46;1.65;;;0.60;;
37063;SDS011;23211;53.912;9.138;2022-11-04T06:44:32;1.90;;;0.75;;
37063;SDS011;23211;53.912;9.138;2022-11-04T06:47:21;3.25;;;0.63;;
37063;SDS011;23211;53.912;9.138;2022-11-04T06:50:07;3.75;;;0.65;;
37063;SDS011;23211;53.912;9.138;2022-11-04T06:52:53;4.43;;;0.80;;
37063;SDS011;23211;53.912;9.138;2022-11-04T06:55:39;4.07;;;0.80;;
37063;SDS011;23211;53.912;9.138;2022-11-04T06:58:25;3.22;;;0.60;;
37063;SDS011;23211;53.912;9.138;2022-11-04T07:01:10;4.57;;;1.17;;
37063;SDS011;23211;53.912;9.138;2022-11-04T07:03:57;2.03;;;0.70;;
37063;SDS011;23211;53.912;9.138;2022-11-04T07:06:44;9.57;;;0.85;;
37063;SDS011;23211;53.912;9.138;2022-11-04T07:09:30;7.07;;;1.00;;
37063;SDS011;23211;53.912;9.138;2022-11-04T07:12:15;3.35;;;0.90;;
37063;SDS011;23211;53.912;9.138;2022-11-04T07:15:01;1.95;;;0.52;;
37063;SDS011;23211;53.912;9.138;2022-11-04T07:17:47;5.50;;;1.10;;
37063;SDS011;23211;53.912;9.138;2022-11-04T07:20:34;1.48;;;0.73;;
37063;SDS011;23211;53.912;9.138;2022-11-04T07:23:21;2.88;;;1.05;;
37063;SDS011;23211;53.912;9.138;2022-11-04T07:26:07;2.22;;;0.75;;
37063;SDS011;23211;53.912;9.138;2022-11-04T07:28:54;2.38;;;0.70;;
37063;SDS011;23211;53.912;9.138;2022-11-04T07:31:40;3.28;;;0.90;;
37063;SDS011;23211;53.912;9.138;2022-11-04T07:34:28;1.92;;;0.65;;
37063;SDS011;23211;53.912;9.138;2022-11-04T07:37:13;2.85;;;0.70;;
37063;SDS011;23211;53.912;9.138;2022-11-04T07:39:59;2.28;;;0.90;;
37063;SDS011;23211;53.912;9.138;2022-11-04T07:42:45;2.83;;;0.90;;
37063;SDS011;23211;53.912;9.138;2022-11-04T07:45:35;1.55;;;0.93;;
37063;SDS011;23211;53.912;9.138;2022-11-04T07:48:21;1.45;;;0.70;;
37063;SDS011;23211;53.912;9.138;2022-11-04T07:51:07;0.60;;;0.60;;
37063;SDS011;23211;53.912;9.138;2022-11-04T07:53:56;2.30;;;0.98;;
37063;SDS011;23211;53.912;9.138;2022-11-04T07:56:41;1.77;;;0.90;;
37063;SDS011;23211;53.912;9.138;2022-11-04T07:59:27;1.05;;;0.93;;
37063;SDS011;23211;53.912;9.138;2022-11-04T08:02:13;1.98;;;1.08;;
37063;SDS011;23211;53.912;9.138;2022-11-04T08:04:59;3.92;;;1.00;;
37063;SDS011;23211;53.912;9.138;2022-11-04T08:07:44;1.63;;;1.20;;
37063;SDS011;23211;53.912;9.138;2022-11-04T08:10:30;5.75;;;1.02;;
37063;SDS011;23211;53.912;9.138;2022-11-04T08:13:16;1.55;;;1.00;;
37063;SDS011;23211;53.912;9.138;2022-11-04T08:16:03;4.07;;;1.25;;
37063;SDS011;23211;53.912;9.138;2022-11-04T08:18:51;1.17;;;0.90;;
37063;SDS011;23211;53.912;9.138;2022-11-04T08:21:37;2.50;;;1.00;;
37063;SDS011;23211;53.912;9.138;2022-11-04T08:24:23;1.58;;;0.90;;
37063;SDS011;23211;53.912;9.138;2022-11-04T08:27:09;2.20;;;1.10;;
37063;SDS011;23211;53.912;9.138;2022-11-04T08:29:55;1.85;;;1.10;;
37063;SDS011;23211;53.912;9.138;2022-11-04T08:32:41;2.30;;;0.98;;
37063;SDS011;23211;53.912;9.138;2022-11-04T08:35:26;2.67;;;1.10;;
37063;SDS011;23211;53.912;9.138;2022-11-04T08:38:12;3.08;;;0.82;;
37063;SDS011;23211;53.912;9.138;2022-11-04T08:40:58;3.50;;;1.50;;
37063;SDS011;23211;53.912;9.138;2022-11-04T08:43:45;1.30;;;0.57;;
37063;SDS011;23211;53.912;9.138;2022-11-04T08:46:36;2.03;;;0.90;;
37063;SDS011;23211;53.912;9.138;2022-11-04T08:49:23;2.67;;;0.82;;
37063;SDS011;23211;53.912;9.138;2022-11-04T08:52:09;1.42;;;0.90;;
37063;SDS011;23211;53.912;9.138;2022-11-04T08:54:55;2.17;;;0.80;;
37063;SDS011;23211;53.912;9.138;2022-11-04T08:57:41;1.75;;;0.90;;
37063;SDS011;23211;53.912;9.138;2022-11-04T09:00:27;4.32;;;1.20;;
37063;SDS011;23211;53.912;9.138;2022-11-04T09:03:12;4.97;;;1.17;;
37063;SDS011;23211;53.912;9.138;2022-11-04T09:05:58;2.17;;;1.30;;
37063;SDS011;23211;53.912;9.138;2022-11-04T09:08:44;3.30;;;1.00;;
37063;SDS011;23211;53.912;9.138;2022-11-04T09:11:31;3.97;;;1.25;;
37063;SDS011;23211;53.912;9.138;2022-11-04T09:14:18;7.15;;;1.30;;
37063;SDS011;23211;53.912;9.138;2022-11-04T09:17:05;1.02;;;0.85;;
37063;SDS011;23211;53.912;9.138;2022-11-04T09:19:50;4.90;;;1.23;;
37063;SDS011;23211;53.912;9.138;2022-11-04T09:22:36;3.42;;;0.88;;
37063;SDS011;23211;53.912;9.138;2022-11-04T09:25:22;3.75;;;1.05;;
37063;SDS011;23211;53.912;9.138;2022-11-04T09:28:08;2.05;;;0.77;;
37063;SDS011;23211;53.912;9.138;2022-11-04T09:30:54;5.95;;;0.93;;
37063;SDS011;23211;53.912;9.138;2022-11-04T09:33:39;5.47;;;0.90;;
37063;SDS011;23211;53.912;9.138;2022-11-04T09:36:25;1.65;;;0.90;;
37063;SDS011;23211;53.912;9.138;2022-11-04T09:39:13;2.95;;;0.60;;
37063;SDS011;23211;53.912;9.138;2022-11-04T09:45:00;2.83;;;0.80;;
37063;SDS011;23211;53.912;9.138;2022-11-04T09:47:51;1.42;;;0.70;;
37063;SDS011;23211;53.912;9.138;2022-11-04T09:50:43;2.30;;;0.80;;
37063;SDS011;23211;53.912;9.138;2022-11-04T09:53:37;2.60;;;0.70;;
37063;SDS011;23211;53.912;9.138;2022-11-04T09:56:36;3.20;;;0.80;;
37063;SDS011;23211;53.912;9.138;2022-11-04T09:59:27;2.53;;;0.80;;
37063;SDS011;23211;53.912;9.138;2022-11-04T10:02:19;2.58;;;0.98;;
37063;SDS011;23211;53.912;9.138;2022-11-04T10:08:23;6.40;;;1.20;;
37063;SDS011;23211;53.912;9.138;2022-11-04T10:11:34;4.22;;;1.27;;
37063;SDS011;23211;53.912;9.138;2022-11-04T10:14:48;6.28;;;1.13;;
37063;SDS011;23211;53.912;9.138;2022-11-04T10:21:03;4.55;;;1.15;;
37063;SDS011;23211;53.912;9.138;2022-11-04T10:24:06;5.90;;;1.00;;
37063;SDS011;23211;53.912;9.138;2022-11-04T10:26:56;5.55;;;1.33;;
37063;SDS011;23211;53.912;9.138;2022-11-04T10:29:49;5.95;;;1.40;;
37063;SDS011;23211;53.912;9.138;2022-11-04T10:32:57;4.07;;;1.48;;
37063;SDS011;23211;53.912;9.138;2022-11-04T10:35:59;4.55;;;1.10;;
37063;SDS011;23211;53.912;9.138;2022-11-04T10:38:54;5.93;;;1.60;;
37063;SDS011;23211;53.912;9.138;2022-11-04T10:41:40;3.47;;;1.55;;
37063;SDS011;23211;53.912;9.138;2022-11-04T10:44:28;5.45;;;1.10;;
37063;SDS011;23211;53.912;9.138;2022-11-04T10:50:34;4.75;;;1.30;;
37063;SDS011;23211;53.912;9.138;2022-11-04T10:53:24;12.65;;;1.58;;
37063;SDS011;23211;53.912;9.138;2022-11-04T11:01:59;4.55;;;1.10;;
37063;SDS011;23211;53.912;9.138;2022-11-04T11:04:46;8.60;;;2.13;;
37063;SDS011;23211;53.912;9.138;2022-11-04T11:07:36;8.77;;;1.38;;
37063;SDS011;23211;53.912;9.138;2022-11-04T11:10:31;4.55;;;1.45;;
37063;SDS011;23211;53.912;9.138;2022-11-04T11:13:23;5.68;;;1.30;;
37063;SDS011;23211;53.912;9.138;2022-11-04T11:19:16;7.82;;;1.33;;
37063;SDS011;23211;53.912;9.138;2022-11-04T11:22:04;8.02;;;1.20;;
37063;SDS011;23211;53.912;9.138;2022-11-04T11:24:49;7.00;;;1.80;;
37063;SDS011;23211;53.912;9.138;2022-11-04T11:27:35;8.23;;;1.25;;
37063;SDS011;23211;53.912;9.138;2022-11-04T11:30:22;6.70;;;1.58;;
37063;SDS011;23211;53.912;9.138;2022-11-04T11:33:30;3.10;;;0.98;;
37063;SDS011;23211;53.912;9.138;2022-11-04T11:36:22;3.97;;;0.95;;
37063;SDS011;23211;53.912;9.138;2022-11-04T11:42:00;6.68;;;1.05;;
37063;SDS011;23211;53.912;9.138;2022-11-04T11:47:40;6.18;;;1.33;;
37063;SDS011;23211;53.912;9.138;2022-11-04T11:50:28;7.35;;;1.08;;
37063;SDS011;23211;53.912;9.138;2022-11-04T11:56:22;6.90;;;1.13;;
37063;SDS011;23211;53.912;9.138;2022-11-04T12:15:17;5.82;;;1.10;;
37063;SDS011;23211;53.912;9.138;2022-11-04T12:18:29;6.35;;;1.45;;
37063;SDS011;23211;53.912;9.138;2022-11-04T12:21:26;6.88;;;1.23;;
37063;SDS011;23211;53.912;9.138;2022-11-04T12:24:29;7.38;;;1.50;;
37063;SDS011;23211;53.912;9.138;2022-11-04T12:30:27;6.45;;;1.00;;
37063;SDS011;23211;53.912;9.138;2022-11-04T12:33:26;7.47;;;1.05;;
37063;SDS011;23211;53.912;9.138;2022-11-04T12:36:35;5.00;;;0.85;;
37063;SDS011;23211;53.912;9.138;2022-11-04T13:01:56;4.53;;;0.90;;
37063;SDS011;23211;53.912;9.138;2022-11-04T13:05:05;3.78;;;1.00;;
37063;SDS011;23211;53.912;9.138;2022-11-04T13:07:53;8.23;;;0.90;;
37063;SDS011;23211;53.912;9.138;2022-11-04T13:13:43;8.02;;;1.35;;
37063;SDS011;23211;53.912;9.138;2022-11-04T13:16:30;10.90;;;1.30;;
37063;SDS011;23211;53.912;9.138;2022-11-04T13:22:11;4.60;;;0.90;;
37063;SDS011;23211;53.912;9.138;2022-11-04T13:25:04;4.75;;;0.93;;
37063;SDS011;23211;53.912;9.138;2022-11-04T13:28:04;2.85;;;0.82;;
37063;SDS011;23211;53.912;9.138;2022-11-04T13:34:05;5.85;;;1.00;;
37063;SDS011;23211;53.912;9.138;2022-11-04T13:46:24;5.22;;;1.08;;
37063;SDS011;23211;53.912;9.138;2022-11-04T13:52:14;7.43;;;1.10;;
37063;SDS011;23211;53.912;9.138;2022-11-04T13:55:04;8.68;;;1.27;;
37063;SDS011;23211;53.912;9.138;2022-11-04T13:57:53;7.28;;;1.00;;
37063;SDS011;23211;53.912;9.138;2022-11-04T14:00:43;4.45;;;0.95;;
37063;SDS011;23211;53.912;9.138;2022-11-04T14:06:58;17.23;;;2.03;;
37063;SDS011;23211;53.912;9.138;2022-11-04T14:12:36;5.05;;;1.27;;
37063;SDS011;23211;53.912;9.138;2022-11-04T14:15:57;7.53;;;1.10;;
37063;SDS011;23211;53.912;9.138;2022-11-04T14:18:51;10.23;;;1.58;;
37063;SDS011;23211;53.912;9.138;2022-11-04T14:24:59;16.30;;;1.80;;
37063;SDS011;23211;53.912;9.138;2022-11-04T14:27:49;5.00;;;1.05;;
37063;SDS011;23211;53.912;9.138;2022-11-04T14:30:50;10.05;;;1.55;;
37063;SDS011;23211;53.912;9.138;2022-11-04T14:33:53;6.07;;;1.37;;
37063;SDS011;23211;53.912;9.138;2022-11-04T14:36:40;5.97;;;1.40;;
37063;SDS011;23211;53.912;9.138;2022-11-04T14:39:27;6.47;;;1.35;;
37063;SDS011;23211;53.912;9.138;2022-11-04T14:42:16;3.63;;;1.63;;
37063;SDS011;23211;53.912;9.138;2022-11-04T14:45:37;9.80;;;1.50;;
37063;SDS011;23211;53.912;9.138;2022-11-04T14:48:24;7.32;;;1.48;;
37063;SDS011;23211;53.912;9.138;2022-11-04T14:51:17;7.43;;;2.00;;
37063;SDS011;23211;53.912;9.138;2022-11-04T14:54:29;6.20;;;1.40;;
37063;SDS011;23211;53.912;9.138;2022-11-04T14:57:18;7.43;;;1.50;;
37063;SDS011;23211;53.912;9.138;2022-11-04T15:03:25;5.53;;;1.48;;
37063;SDS011;23211;53.912;9.138;2022-11-04T15:06:21;14.95;;;1.70;;
37063;SDS011;23211;53.912;9.138;2022-11-04T15:09:26;10.80;;;1.50;;
37063;SDS011;23211;53.912;9.138;2022-11-04T15:12:15;7.22;;;1.58;;
37063;SDS011;23211;53.912;9.138;2022-11-04T15:18:35;7.32;;;1.70;;
37063;SDS011;23211;53.912;9.138;2022-11-04T15:21:24;8.60;;;2.17;;
37063;SDS011;23211;53.912;9.138;2022-11-04T15:24:13;10.93;;;2.75;;
37063;SDS011;23211;53.912;9.138;2022-11-04T15:27:05;12.60;;;3.28;;
37063;SDS011;23211;53.912;9.138;2022-11-04T15:29:52;12.48;;;1.77;;
37063;SDS011;23211;53.912;9.138;2022-11-04T15:32:39;11.20;;;2.03;;
37063;SDS011;23211;53.912;9.138;2022-11-04T15:35:25;10.45;;;2.40;;
37063;SDS011;23211;53.912;9.138;2022-11-04T15:38:14;8.43;;;1.60;;
37063;SDS011;23211;53.912;9.138;2022-11-04T15:41:00;12.93;;;1.80;;
37063;SDS011;23211;53.912;9.138;2022-11-04T15:44:12;19.83;;;1.85;;
37063;SDS011;23211;53.912;9.138;2022-11-04T15:47:02;7.85;;;1.73;;
37063;SDS011;23211;53.912;9.138;2022-11-04T15:50:21;14.73;;;2.03;;
37063;SDS011;23211;53.912;9.138;2022-11-04T15:53:08;9.27;;;1.90;;
37063;SDS011;23211;53.912;9.138;2022-11-04T15:55:54;9.98;;;1.73;;
37063;SDS011;23211;53.912;9.138;2022-11-04T15:58:40;11.00;;;1.77;;
37063;SDS011;23211;53.912;9.138;2022-11-04T16:01:29;14.10;;;2.03;;
37063;SDS011;23211;53.912;9.138;2022-11-04T16:04:17;14.40;;;2.15;;
37063;SDS011;23211;53.912;9.138;2022-11-04T16:09:55;11.70;;;2.75;;
37063;SDS011;23211;53.912;9.138;2022-11-04T16:12:42;8.98;;;2.00;;
37063;SDS011;23211;53.912;9.138;2022-11-04T16:15:35;12.40;;;2.13;;
37063;SDS011;23211;53.912;9.138;2022-11-04T16:18:36;11.88;;;2.35;;
37063;SDS011;23211;53.912;9.138;2022-11-04T16:21:29;16.55;;;2.30;;
37063;SDS011;23211;53.912;9.138;2022-11-04T16:24:22;14.38;;;2.33;;
37063;SDS011;23211;53.912;9.138;2022-11-04T16:27:12;7.68;;;1.80;;
37063;SDS011;23211;53.912;9.138;2022-11-04T16:30:22;7.70;;;1.63;;
37063;SDS011;23211;53.912;9.138;2022-11-04T16:33:09;11.35;;;1.85;;
37063;SDS011;23211;53.912;9.138;2022-11-04T16:35:55;10.93;;;2.40;;
37063;SDS011;23211;53.912;9.138;2022-11-04T16:38:41;9.95;;;2.95;;
37063;SDS011;23211;53.912;9.138;2022-11-04T16:41:27;12.10;;;3.05;;
37063;SDS011;23211;53.912;9.138;2022-11-04T16:44:20;10.15;;;2.17;;
37063;SDS011;23211;53.912;9.138;2022-11-04T16:47:08;11.57;;;2.92;;
37063;SDS011;23211;53.912;9.138;2022-11-04T16:49:58;11.95;;;2.78;;
37063;SDS011;23211;53.912;9.138;2022-11-04T16:52:45;11.30;;;2.65;;
37063;SDS011;23211;53.912;9.138;2022-11-04T16:55:31;5.53;;;1.77;;
37063;SDS011;23211;53.912;9.138;2022-11-04T16:58:17;8.23;;;1.98;;
37063;SDS011;23211;53.912;9.138;2022-11-04T17:01:03;11.10;;;2.20;;
37063;SDS011;23211;53.912;9.138;2022-11-04T17:03:49;11.02;;;2.63;;
37063;SDS011;23211;53.912;9.138;2022-11-04T17:06:35;13.07;;;3.28;;
37063;SDS011;23211;53.912;9.138;2022-11-04T17:09:21;16.77;;;3.55;;
37063;SDS011;23211;53.912;9.138;2022-11-04T17:12:08;11.90;;;4.32;;
37063;SDS011;23211;53.912;9.138;2022-11-04T17:14:54;11.13;;;2.90;;
37063;SDS011;23211;53.912;9.138;2022-11-04T17:17:40;10.73;;;2.90;;
37063;SDS011;23211;53.912;9.138;2022-11-04T17:20:26;16.77;;;2.45;;
37063;SDS011;23211;53.912;9.138;2022-11-04T17:23:14;9.95;;;2.58;;
37063;SDS011;23211;53.912;9.138;2022-11-04T17:26:00;16.77;;;3.13;;
37063;SDS011;23211;53.912;9.138;2022-11-04T17:28:46;18.48;;;4.57;;
37063;SDS011;23211;53.912;9.138;2022-11-04T17:31:32;11.48;;;4.50;;
37063;SDS011;23211;53.912;9.138;2022-11-04T17:34:18;18.27;;;4.30;;
37063;SDS011;23211;53.912;9.138;2022-11-04T17:37:04;15.18;;;5.35;;
37063;SDS011;23211;53.912;9.138;2022-11-04T17:39:49;16.85;;;4.60;;
37063;SDS011;23211;53.912;9.138;2022-11-04T17:42:35;14.05;;;4.95;;
37063;SDS011;23211;53.912;9.138;2022-11-04T17:45:40;10.50;;;3.67;;
37063;SDS011;23211;53.912;9.138;2022-11-04T17:48:26;12.25;;;3.60;;
37063;SDS011;23211;53.912;9.138;2022-11-04T17:51:12;11.98;;;3.03;;
37063;SDS011;23211;53.912;9.138;2022-11-04T17:53:58;15.90;;;3.55;;
37063;SDS011;23211;53.912;9.138;2022-11-04T17:56:44;15.85;;;3.38;;
37063;SDS011;23211;53.912;9.138;2022-11-04T17:59:30;17.83;;;2.80;;
37063;SDS011;23211;53.912;9.138;2022-11-04T18:02:16;12.98;;;2.80;;
37063;SDS011;23211;53.912;9.138;2022-11-04T18:05:01;12.10;;;2.75;;
37063;SDS011;23211;53.912;9.138;2022-11-04T18:07:48;15.93;;;2.83;;
37063;SDS011;23211;53.912;9.138;2022-11-04T18:10:33;17.65;;;4.97;;
37063;SDS011;23211;53.912;9.138;2022-11-04T18:13:19;18.50;;;6.38;;
37063;SDS011;23211;53.912;9.138;2022-11-04T18:16:09;15.38;;;4.93;;
37063;SDS011;23211;53.912;9.138;2022-11-04T18:18:56;11.40;;;3.63;;
37063;SDS011;23211;53.912;9.138;2022-11-04T18:21:43;22.60;;;3.92;;
37063;SDS011;23211;53.912;9.138;2022-11-04T18:24:30;19.05;;;4.03;;
37063;SDS011;23211;53.912;9.138;2022-11-04T18:27:16;19.98;;;4.72;;
37063;SDS011;23211;53.912;9.138;2022-11-04T18:30:01;17.80;;;4.53;;
37063;SDS011;23211;53.912;9.138;2022-11-04T18:32:47;19.70;;;4.78;;
37063;SDS011;23211;53.912;9.138;2022-11-04T18:35:33;18.40;;;5.00;;
37063;SDS011;23211;53.912;9.138;2022-11-04T18:38:19;15.27;;;4.70;;
37063;SDS011;23211;53.912;9.138;2022-11-04T18:41:05;19.25;;;4.72;;
37063;SDS011;23211;53.912;9.138;2022-11-04T18:43:51;19.42;;;4.07;;
37063;SDS011;23211;53.912;9.138;2022-11-04T18:46:37;16.00;;;3.53;;
37063;SDS011;23211;53.912;9.138;2022-11-04T18:49:23;16.60;;;5.13;;
37063;SDS011;23211;53.912;9.138;2022-11-04T18:52:09;21.58;;;5.35;;
37063;SDS011;23211;53.912;9.138;2022-11-04T18:54:55;22.13;;;4.97;;
37063;SDS011;23211;53.912;9.138;2022-11-04T18:57:41;12.25;;;3.47;;
37063;SDS011;23211;53.912;9.138;2022-11-04T19:00:27;22.20;;;5.15;;
37063;SDS011;23211;53.912;9.138;2022-11-04T19:03:13;17.88;;;4.22;;
37063;SDS011;23211;53.912;9.138;2022-11-04T19:05:58;20.42;;;4.10;;
37063;SDS011;23211;53.912;9.138;2022-11-04T19:08:48;13.55;;;4.78;;
37063;SDS011;23211;53.912;9.138;2022-11-04T19:11:36;16.92;;;3.95;;
37063;SDS011;23211;53.912;9.138;2022-11-04T19:14:24;18.65;;;3.25;;
37063;SDS011;23211;53.912;9.138;2022-11-04T19:17:09;12.60;;;3.08;;
37063;SDS011;23211;53.912;9.138;2022-11-04T19:19:55;19.15;;;5.18;;
37063;SDS011;23211;53.912;9.138;2022-11-04T19:22:41;78.80;;;28.95;;
37063;SDS011;23211;53.912;9.138;2022-11-04T19:25:27;67.85;;;31.40;;
37063;SDS011;23211;53.912;9.138;2022-11-04T19:28:13;36.45;;;14.95;;
37063;SDS011;23211;53.912;9.138;2022-11-04T19:31:00;28.75;;;10.32;;